createdAt,value
2022-10-01T00:01:16.213Z,14.04
2022-10-01T00:03:43.444Z,14.06
2022-10-01T00:06:20.000Z,13.97
2022-10-01T00:08:49.128Z,13.92
2022-10-01T00:11:21.427Z,13.90
2022-10-01T00:13:48.533Z,13.91
2022-10-01T00:16:18.811Z,13.87
2022-10-01T00:18:47.243Z,13.84
2022-10-01T00:21:17.043Z,13.81
2022-10-01T00:23:43.470Z,13.70
2022-10-01T00:26:18.607Z,13.69
2022-10-01T00:28:47.516Z,13.72
2022-10-01T00:31:15.884Z,13.71
2022-10-01T00:33:42.931Z,13.77
2022-10-01T00:36:10.793Z,13.81
2022-10-01T00:38:40.232Z,13.77
2022-10-01T00:41:07.571Z,13.80
2022-10-01T00:43:37.577Z,13.82
2022-10-01T00:46:13.366Z,13.86
2022-10-01T00:48:50.100Z,13.90
2022-10-01T00:51:16.536Z,13.88
2022-10-01T00:53:44.610Z,13.85
2022-10-01T00:56:11.078Z,13.87
2022-10-01T00:58:38.495Z,13.85
2022-10-01T01:01:05.396Z,13.84
2022-10-01T01:03:31.768Z,13.83
2022-10-01T01:05:58.214Z,13.82
2022-10-01T01:08:24.697Z,13.78
2022-10-01T01:11:07.056Z,13.81
2022-10-01T01:13:42.816Z,13.81
2022-10-01T01:16:18.726Z,13.87
2022-10-01T01:19:02.437Z,13.85
2022-10-01T01:21:52.396Z,13.80
2022-10-01T01:24:33.192Z,13.83
2022-10-01T01:27:37.699Z,13.84
2022-10-01T01:30:16.681Z,13.89
2022-10-01T01:33:04.725Z,13.83
2022-10-01T01:35:35.549Z,13.85
2022-10-01T01:38:16.583Z,13.81
2022-10-01T01:40:46.556Z,13.80
2022-10-01T01:43:20.533Z,13.80
2022-10-01T01:45:55.184Z,13.72
2022-10-01T01:48:23.869Z,13.61
2022-10-01T01:50:58.740Z,13.52
2022-10-01T01:53:26.121Z,13.51
2022-10-01T01:55:53.260Z,13.41
2022-10-01T01:58:20.087Z,13.33
2022-10-01T02:00:52.255Z,13.31
2022-10-01T02:03:25.788Z,13.27
2022-10-01T02:06:10.839Z,13.39
2022-10-01T02:08:57.262Z,13.49
2022-10-01T02:11:38.036Z,13.49
2022-10-01T02:14:19.031Z,13.52
2022-10-01T02:16:55.930Z,13.65
2022-10-01T02:19:37.154Z,13.68
2022-10-01T02:22:13.059Z,13.75
2022-10-01T02:24:51.142Z,13.71
2022-10-01T02:27:28.697Z,13.66
2022-10-01T02:29:59.020Z,13.70
2022-10-01T02:32:28.776Z,13.70
2022-10-01T02:34:55.184Z,13.75
2022-10-01T02:37:25.297Z,13.73
2022-10-01T02:39:54.592Z,13.61
2022-10-01T02:42:23.724Z,13.59
2022-10-01T02:44:52.433Z,13.59
2022-10-01T02:47:24.969Z,13.62
2022-10-01T02:49:52.898Z,13.63
2022-10-01T02:52:37.169Z,13.57
2022-10-01T02:55:35.248Z,13.51
2022-10-01T02:58:01.784Z,13.53
2022-10-01T03:00:28.596Z,13.52
2022-10-01T03:02:55.072Z,13.48
2022-10-01T03:05:21.734Z,13.39
2022-10-01T03:07:48.644Z,13.40
2022-10-01T03:10:16.037Z,13.45
2022-10-01T03:12:46.542Z,13.47
2022-10-01T03:15:15.401Z,13.46
2022-10-01T03:17:41.855Z,13.44
2022-10-01T03:20:08.969Z,13.44
2022-10-01T03:22:35.548Z,13.49
2022-10-01T03:25:01.879Z,13.49
2022-10-01T03:27:28.400Z,13.51
2022-10-01T03:29:54.844Z,13.55
2022-10-01T03:32:21.236Z,13.61
2022-10-01T03:34:48.005Z,13.62
2022-10-01T03:37:14.435Z,13.59
2022-10-01T03:39:40.884Z,13.58
2022-10-01T03:42:07.320Z,13.59
2022-10-01T03:44:34.041Z,13.69
2022-10-01T03:47:00.697Z,13.69
2022-10-01T03:49:27.783Z,13.69
2022-10-01T03:51:54.179Z,13.77
2022-10-01T03:54:21.221Z,13.80
2022-10-01T03:56:48.750Z,13.74
2022-10-01T03:59:15.324Z,13.73
2022-10-01T04:01:41.895Z,13.67
2022-10-01T04:04:08.344Z,13.60
2022-10-01T04:06:34.834Z,13.58
2022-10-01T04:09:01.576Z,13.54
2022-10-01T04:11:28.034Z,13.55
2022-10-01T04:13:54.520Z,13.53
2022-10-01T04:16:21.027Z,13.46
2022-10-01T04:18:47.545Z,13.33
2022-10-01T04:21:15.486Z,13.31
2022-10-01T04:23:42.251Z,13.37
2022-10-01T04:26:09.295Z,13.36
2022-10-01T04:28:36.225Z,13.39
2022-10-01T04:31:21.539Z,13.33
2022-10-01T04:33:48.017Z,13.33
2022-10-01T04:36:14.634Z,13.36
2022-10-01T04:38:41.031Z,13.26
2022-10-01T04:41:08.876Z,13.19
2022-10-01T04:43:35.504Z,13.17
2022-10-01T04:46:01.976Z,13.18
2022-10-01T04:48:28.503Z,13.20
2022-10-01T04:50:54.898Z,13.22
2022-10-01T04:53:21.344Z,13.27
2022-10-01T04:55:47.772Z,13.38
2022-10-01T04:58:14.227Z,13.46
2022-10-01T05:00:40.989Z,13.48
2022-10-01T05:03:07.453Z,13.41
2022-10-01T05:05:35.090Z,13.36
2022-10-01T05:08:02.082Z,13.32
2022-10-01T05:10:29.078Z,13.29
2022-10-01T05:12:55.520Z,13.30
2022-10-01T05:15:21.954Z,13.30
2022-10-01T05:17:48.382Z,13.25
2022-10-01T05:20:20.062Z,13.23
2022-10-01T05:22:47.358Z,13.24
2022-10-01T05:25:14.368Z,13.19
2022-10-01T05:27:41.085Z,13.14
2022-10-01T05:30:10.403Z,13.10
2022-10-01T05:32:37.790Z,13.04
2022-10-01T05:35:05.455Z,13.02
2022-10-01T05:37:31.895Z,12.93
2022-10-01T05:39:58.236Z,12.86
2022-10-01T05:42:24.801Z,12.74
2022-10-01T05:44:51.202Z,12.78
2022-10-01T05:47:18.316Z,12.70
2022-10-01T05:49:44.790Z,12.72
2022-10-01T05:52:12.636Z,12.69
2022-10-01T05:54:39.197Z,12.68
2022-10-01T05:57:06.247Z,12.64
2022-10-01T05:59:32.645Z,12.63
2022-10-01T06:01:59.143Z,12.56
2022-10-01T06:04:25.650Z,12.55
2022-10-01T06:06:53.920Z,12.53
2022-10-01T06:09:20.256Z,12.51
2022-10-01T06:11:48.837Z,12.54
2022-10-01T06:14:15.781Z,12.51
2022-10-01T06:16:42.312Z,12.49
2022-10-01T06:19:08.716Z,12.42
2022-10-01T06:21:36.145Z,12.33
2022-10-01T06:24:02.800Z,12.35
2022-10-01T06:26:29.274Z,12.31
2022-10-01T06:28:56.545Z,12.31
2022-10-01T06:31:24.157Z,12.33
2022-10-01T06:33:50.556Z,12.37
2022-10-01T06:36:16.951Z,12.45
2022-10-01T06:38:43.628Z,12.45
2022-10-01T06:41:10.558Z,12.49
2022-10-01T06:43:36.896Z,12.48
2022-10-01T06:46:04.867Z,12.41
2022-10-01T06:48:32.358Z,12.43
2022-10-01T06:50:59.190Z,12.45
2022-10-01T06:53:27.560Z,12.40
2022-10-01T06:55:54.360Z,12.43
2022-10-01T06:58:23.059Z,12.46
2022-10-01T07:00:50.475Z,12.47
2022-10-01T07:03:19.780Z,12.50
2022-10-01T07:05:47.064Z,12.56
2022-10-01T07:08:14.218Z,12.59
2022-10-01T07:10:41.785Z,12.51
2022-10-01T07:13:13.336Z,12.49
2022-10-01T07:15:40.080Z,12.42
2022-10-01T07:18:09.478Z,12.30
2022-10-01T07:20:39.633Z,12.28
2022-10-01T07:23:11.170Z,12.34
2022-10-01T07:25:39.207Z,12.43
2022-10-01T07:28:07.885Z,12.41
2022-10-01T07:30:34.423Z,12.36
2022-10-01T07:33:00.777Z,12.28
2022-10-01T07:35:28.369Z,12.21
2022-10-01T07:37:55.176Z,12.19
2022-10-01T07:40:21.703Z,12.17
2022-10-01T07:42:56.109Z,12.14
2022-10-01T07:45:23.608Z,12.11
2022-10-01T07:47:58.073Z,12.13
2022-10-01T07:50:26.295Z,12.16
2022-10-01T07:52:57.367Z,12.25
2022-10-01T07:55:26.952Z,12.35
2022-10-01T07:57:55.012Z,12.36
2022-10-01T08:00:23.474Z,12.41
2022-10-01T08:02:51.573Z,12.44
2022-10-01T08:05:20.367Z,12.37
2022-10-01T08:07:48.108Z,12.39
2022-10-01T08:10:15.945Z,12.40
2022-10-01T08:12:42.751Z,12.38
2022-10-01T08:15:11.068Z,12.30
2022-10-01T08:17:40.635Z,12.37
2022-10-01T08:20:08.963Z,12.39
2022-10-01T08:22:39.760Z,12.42
2022-10-01T08:25:08.515Z,12.35
2022-10-01T08:27:35.085Z,12.33
2022-10-01T08:30:01.493Z,12.26
2022-10-01T08:32:28.144Z,12.33
2022-10-01T08:34:59.782Z,12.31
2022-10-01T08:37:27.688Z,12.30
2022-10-01T08:39:55.331Z,12.29
2022-10-01T08:42:39.735Z,12.32
2022-10-01T08:45:14.394Z,12.42
2022-10-01T08:47:46.976Z,12.45
2022-10-01T08:50:13.407Z,12.48
2022-10-01T08:52:52.351Z,12.40
2022-10-01T08:55:25.836Z,12.30
2022-10-01T08:57:56.896Z,12.36
2022-10-01T09:00:23.489Z,12.41
2022-10-01T09:02:52.777Z,12.40
2022-10-01T09:05:28.827Z,12.44
2022-10-01T09:08:43.380Z,12.33
2022-10-01T09:11:23.771Z,12.34
2022-10-01T09:13:57.454Z,12.37
2022-10-01T09:16:42.306Z,12.43
2022-10-01T09:19:56.808Z,12.50
2022-10-01T09:22:49.237Z,12.53
2022-10-01T09:25:24.279Z,12.50
2022-10-01T09:28:03.146Z,12.55
2022-10-01T09:30:31.660Z,12.63
2022-10-01T09:33:12.744Z,12.64
2022-10-01T09:35:45.260Z,12.74
2022-10-01T09:38:14.567Z,12.79
2022-10-01T09:40:57.483Z,12.78
2022-10-01T09:43:28.631Z,12.77
2022-10-01T09:45:55.756Z,12.77
2022-10-01T09:48:44.559Z,12.80
2022-10-01T09:51:17.236Z,12.86
2022-10-01T09:53:52.979Z,12.97
2022-10-01T09:56:27.707Z,13.03
2022-10-01T09:58:59.936Z,12.99
2022-10-01T10:01:42.147Z,13.00
2022-10-01T10:04:09.264Z,13.07
2022-10-01T10:06:35.858Z,13.05
2022-10-01T10:09:02.674Z,13.11
2022-10-01T10:11:32.096Z,13.25
2022-10-01T10:14:03.366Z,13.42
2022-10-01T10:16:34.239Z,13.52
2022-10-01T10:19:04.780Z,13.56
2022-10-01T10:21:34.804Z,13.70
2022-10-01T10:24:04.064Z,13.78
2022-10-01T10:26:33.296Z,13.87
2022-10-01T10:29:02.415Z,13.95
2022-10-01T10:31:42.139Z,14.04
2022-10-01T10:34:16.716Z,14.15
2022-10-01T10:36:45.207Z,14.26
2022-10-01T10:39:29.278Z,14.42
2022-10-01T10:41:56.917Z,14.60
2022-10-01T10:44:26.768Z,14.67
2022-10-01T10:46:54.049Z,14.80
2022-10-01T10:49:29.927Z,14.88
2022-10-01T10:52:00.683Z,15.04
2022-10-01T10:54:37.848Z,15.25
2022-10-01T10:57:23.207Z,15.42
2022-10-01T11:00:01.303Z,15.87
2022-10-01T11:02:30.420Z,16.81
2022-10-01T11:05:11.914Z,17.71
2022-10-01T11:07:40.062Z,18.32
2022-10-01T11:10:42.348Z,17.93
2022-10-01T11:13:53.143Z,18.22
2022-10-01T11:16:29.419Z,19.35
2022-10-01T11:19:21.359Z,20.13
2022-10-01T11:22:25.804Z,21.23
2022-10-01T11:25:18.306Z,21.92
2022-10-01T11:28:11.115Z,23.58
2022-10-01T11:30:58.762Z,25.84
2022-10-01T11:33:31.765Z,26.65
2022-10-01T11:36:07.610Z,26.43
2022-10-01T11:38:46.970Z,27.22
2022-10-01T11:41:39.930Z,27.01
2022-10-01T11:44:25.177Z,27.05
2022-10-01T11:47:09.865Z,27.59
2022-10-01T11:49:54.783Z,27.98
2022-10-01T11:52:48.004Z,27.70
2022-10-01T11:55:48.321Z,29.31
2022-10-01T11:58:52.453Z,27.55
2022-10-01T12:01:28.308Z,25.16
2022-10-01T12:03:54.746Z,23.31
2022-10-01T12:06:33.582Z,22.65
2022-10-01T12:09:16.986Z,22.30
2022-10-01T12:11:57.771Z,22.06
2022-10-01T12:14:44.262Z,22.70
2022-10-01T12:17:20.125Z,23.91
2022-10-01T12:19:51.194Z,25.98
2022-10-01T12:22:25.520Z,27.20
2022-10-01T12:24:53.197Z,27.62
2022-10-01T12:27:53.935Z,26.72
2022-10-01T12:30:23.096Z,27.12
2022-10-01T12:33:01.383Z,26.98
2022-10-01T12:35:33.311Z,28.15
2022-10-01T12:38:21.079Z,27.74
2022-10-01T12:40:53.891Z,27.43
2022-10-01T12:43:29.051Z,25.70
2022-10-01T12:46:27.364Z,23.90
2022-10-01T12:49:24.748Z,22.62
2022-10-01T12:52:19.341Z,21.59
2022-10-01T12:55:12.881Z,20.81
2022-10-01T12:57:57.172Z,20.09
2022-10-01T13:00:27.178Z,19.77
2022-10-01T13:03:24.621Z,19.48
2022-10-01T13:06:26.723Z,19.03
2022-10-01T13:09:15.676Z,18.78
2022-10-01T13:12:05.190Z,18.63
2022-10-01T13:14:33.428Z,18.34
2022-10-01T13:17:06.507Z,18.11
2022-10-01T13:19:54.665Z,17.91
2022-10-01T13:22:47.095Z,17.77
2022-10-01T13:25:38.591Z,17.72
2022-10-01T13:28:29.489Z,17.65
2022-10-01T13:31:00.102Z,17.38
2022-10-01T13:33:29.811Z,17.15
2022-10-01T13:36:02.042Z,16.98
2022-10-01T13:38:37.646Z,16.80
2022-10-01T13:41:27.102Z,16.73
2022-10-01T13:43:58.344Z,16.67
2022-10-01T13:46:31.033Z,16.48
2022-10-01T13:49:07.042Z,16.18
2022-10-01T13:51:35.882Z,16.10
2022-10-01T13:54:03.393Z,16.01
2022-10-01T13:56:37.239Z,15.97
2022-10-01T13:59:20.430Z,15.85
2022-10-01T14:01:46.944Z,15.73
2022-10-01T14:04:33.366Z,15.73
2022-10-01T14:07:25.120Z,15.74
2022-10-01T14:09:58.390Z,15.85
2022-10-01T14:12:51.655Z,16.04
2022-10-01T14:15:38.401Z,16.25
2022-10-01T14:18:11.250Z,16.40
2022-10-01T14:20:54.064Z,16.72
2022-10-01T14:23:36.569Z,17.02
2022-10-01T14:26:23.881Z,17.27
2022-10-01T14:29:17.482Z,17.48
2022-10-01T14:32:16.885Z,17.56
2022-10-01T14:35:20.588Z,17.52
2022-10-01T14:37:46.991Z,17.69
2022-10-01T14:40:21.307Z,17.74
2022-10-01T14:43:02.072Z,17.63
2022-10-01T14:45:29.780Z,17.64
2022-10-01T14:48:07.029Z,17.60
2022-10-01T14:50:35.963Z,17.61
2022-10-01T14:53:06.570Z,17.60
2022-10-01T14:55:34.843Z,17.61
2022-10-01T14:58:01.464Z,17.63
2022-10-01T15:00:32.080Z,17.72
2022-10-01T15:03:07.690Z,17.76
2022-10-01T15:05:35.994Z,17.72
2022-10-01T15:08:11.876Z,17.57
2022-10-01T15:10:53.436Z,17.48
2022-10-01T15:13:24.266Z,17.46
2022-10-01T15:15:51.864Z,17.43
2022-10-01T15:18:18.792Z,17.33
2022-10-01T15:20:56.443Z,17.24
2022-10-01T15:23:25.352Z,17.08
2022-10-01T15:25:54.164Z,16.95
2022-10-01T15:28:31.761Z,16.96
2022-10-01T15:31:00.870Z,17.13
2022-10-01T15:33:32.692Z,17.16
2022-10-01T15:36:02.768Z,17.11
2022-10-01T15:38:31.295Z,16.94
2022-10-01T15:41:19.608Z,16.76
2022-10-01T15:43:47.396Z,16.69
2022-10-01T15:46:25.229Z,16.53
2022-10-01T15:49:24.678Z,16.41
2022-10-01T15:52:19.303Z,16.42
2022-10-01T15:54:46.143Z,16.40
2022-10-01T15:57:21.811Z,16.27
2022-10-01T15:59:51.307Z,16.21
2022-10-01T16:02:23.981Z,16.15
2022-10-01T16:04:56.074Z,16.13
2022-10-01T16:07:29.859Z,16.13
2022-10-01T16:09:59.018Z,16.12
2022-10-01T16:12:27.950Z,16.17
2022-10-01T16:15:06.097Z,16.21
2022-10-01T16:17:37.998Z,16.31
2022-10-01T16:20:36.762Z,16.36
2022-10-01T16:23:40.915Z,16.39
2022-10-01T16:26:27.309Z,16.43
2022-10-01T16:29:24.698Z,16.44
2022-10-01T16:31:51.652Z,16.40
2022-10-01T16:34:19.864Z,16.35
2022-10-01T16:36:46.510Z,16.28
2022-10-01T16:39:15.046Z,16.24
2022-10-01T16:41:44.167Z,16.17
2022-10-01T16:44:13.616Z,16.16
2022-10-01T16:46:41.345Z,16.10
2022-10-01T16:49:13.795Z,16.11
2022-10-01T16:51:40.949Z,16.11
2022-10-01T16:54:22.301Z,16.15
2022-10-01T16:56:50.684Z,16.19
2022-10-01T16:59:17.608Z,16.14
2022-10-01T17:01:45.833Z,16.16
2022-10-01T17:04:13.480Z,16.17
2022-10-01T17:06:40.828Z,16.16
2022-10-01T17:09:07.326Z,16.09
2022-10-01T17:11:34.720Z,16.01
2022-10-01T17:14:02.900Z,15.97
2022-10-01T17:16:29.474Z,15.92
2022-10-01T17:18:56.069Z,15.89
2022-10-01T17:21:22.496Z,15.90
2022-10-01T17:23:53.216Z,15.88
2022-10-01T17:26:20.177Z,15.86
2022-10-01T17:28:46.511Z,15.86
2022-10-01T17:31:17.971Z,15.88
2022-10-01T17:33:45.109Z,15.88
2022-10-01T17:36:11.749Z,15.83
2022-10-01T17:38:40.063Z,15.79
2022-10-01T17:41:07.302Z,15.75
2022-10-01T17:43:33.818Z,15.67
2022-10-01T17:46:01.361Z,15.63
2022-10-01T17:48:29.027Z,15.64
2022-10-01T17:51:03.858Z,15.68
2022-10-01T17:53:35.900Z,15.75
2022-10-01T17:56:08.005Z,15.80
2022-10-01T17:58:34.358Z,15.73
2022-10-01T18:01:01.577Z,15.64
2022-10-01T18:03:28.429Z,15.58
2022-10-01T18:06:03.041Z,15.54
2022-10-01T18:08:53.782Z,15.52
2022-10-01T18:11:17.885Z,15.56
2022-10-01T18:13:44.345Z,15.54
2022-10-01T18:16:18.314Z,15.49
2022-10-01T18:21:35.043Z,15.43
2022-10-01T18:24:04.514Z,15.35
2022-10-01T18:26:31.963Z,15.37
2022-10-01T18:28:58.346Z,15.35
2022-10-01T18:31:27.063Z,15.33
2022-10-01T18:33:59.293Z,15.30
2022-10-01T18:36:41.927Z,15.31
2022-10-01T18:39:26.540Z,15.30
2022-10-01T18:41:53.319Z,15.37
2022-10-01T18:44:20.898Z,15.40
2022-10-01T18:46:50.419Z,15.38
2022-10-01T18:49:36.743Z,15.36
2022-10-01T18:52:27.068Z,15.40
2022-10-01T18:55:07.905Z,15.35
2022-10-01T18:57:58.319Z,15.25
2022-10-01T19:00:28.449Z,15.23
2022-10-01T19:03:15.105Z,15.22
2022-10-01T19:05:59.550Z,15.15
2022-10-01T19:08:43.603Z,15.08
2022-10-01T19:11:18.275Z,15.04
2022-10-01T19:14:08.547Z,14.95
2022-10-01T19:16:56.810Z,14.91
2022-10-01T19:19:45.024Z,14.89
2022-10-01T19:22:48.425Z,14.87
2022-10-01T19:25:35.424Z,14.79
2022-10-01T19:28:34.274Z,14.80
2022-10-01T19:31:14.198Z,14.75
2022-10-01T19:33:50.329Z,14.78
2022-10-01T19:36:30.394Z,14.79
2022-10-01T19:39:06.066Z,14.77
2022-10-01T19:42:06.432Z,14.74
2022-10-01T19:44:58.282Z,14.76
2022-10-01T19:47:32.613Z,14.75
2022-10-01T19:50:06.281Z,14.72
2022-10-01T19:52:38.228Z,14.69
2022-10-01T19:55:14.140Z,14.67
2022-10-01T19:57:43.935Z,14.61
2022-10-01T20:00:17.813Z,14.60
2022-10-01T20:02:52.076Z,14.57
2022-10-01T20:05:48.932Z,14.56
2022-10-01T20:08:33.832Z,14.58
2022-10-01T20:11:06.651Z,14.58
2022-10-01T20:13:48.679Z,14.54
2022-10-01T20:16:21.090Z,14.53
2022-10-01T20:19:08.231Z,14.45
2022-10-01T20:21:45.741Z,14.44
2022-10-01T20:24:46.670Z,14.46
2022-10-01T20:27:40.079Z,14.44
2022-10-01T20:30:10.632Z,14.43
2022-10-01T20:32:57.704Z,14.33
2022-10-01T20:35:36.987Z,14.37
2022-10-01T20:38:09.786Z,14.31
2022-10-01T20:40:49.783Z,14.22
2022-10-01T20:43:21.990Z,14.23
2022-10-01T20:45:51.247Z,14.27
2022-10-01T20:48:27.350Z,14.25
2022-10-01T20:51:01.353Z,14.22
2022-10-01T20:53:56.667Z,14.22
2022-10-01T20:56:32.488Z,14.25
2022-10-01T20:59:10.675Z,14.23
2022-10-01T21:01:42.358Z,14.26
2022-10-01T21:04:19.485Z,14.24
2022-10-01T21:06:48.950Z,14.27
2022-10-01T21:09:15.824Z,14.26
2022-10-01T21:11:53.260Z,14.22
2022-10-01T21:14:30.624Z,14.22
2022-10-01T21:17:08.011Z,14.17
2022-10-01T21:20:12.264Z,14.11
2022-10-01T21:22:56.979Z,14.06
2022-10-01T21:25:47.791Z,14.09
2022-10-01T21:28:35.433Z,14.13
2022-10-01T21:31:08.513Z,14.15
2022-10-01T21:34:02.881Z,14.11
2022-10-01T21:36:52.064Z,14.08
2022-10-01T21:39:31.623Z,14.13
2022-10-01T21:42:15.927Z,14.20
2022-10-01T21:44:48.005Z,14.21
2022-10-01T21:47:19.019Z,14.21
2022-10-01T21:50:03.626Z,14.27
2022-10-01T21:53:02.711Z,14.39
2022-10-01T21:55:55.591Z,14.49
2022-10-01T21:59:04.938Z,14.56
2022-10-01T22:02:04.864Z,14.67
2022-10-01T22:04:47.702Z,14.78
2022-10-01T22:07:32.000Z,14.83
2022-10-01T22:10:16.728Z,14.90
2022-10-01T22:12:48.091Z,14.94
2022-10-01T22:15:28.259Z,14.94
2022-10-01T22:17:57.326Z,14.92
2022-10-01T22:20:29.063Z,14.64
2022-10-01T22:22:59.028Z,14.56
2022-10-01T22:25:27.028Z,14.47
2022-10-01T22:28:05.811Z,14.44
2022-10-01T22:30:37.717Z,14.45
2022-10-01T22:33:20.068Z,14.33
2022-10-01T22:35:56.174Z,14.28
2022-10-01T22:38:32.452Z,14.21
2022-10-01T22:41:31.079Z,14.21
2022-10-01T22:43:57.516Z,14.26
2022-10-01T22:46:45.069Z,14.23
2022-10-01T22:49:53.671Z,14.19
2022-10-01T22:52:41.343Z,14.20
2022-10-01T22:55:14.010Z,14.25
2022-10-01T22:58:10.856Z,14.22
2022-10-01T23:00:45.580Z,14.32
2022-10-01T23:03:28.901Z,14.31
2022-10-01T23:06:11.697Z,14.26
2022-10-01T23:08:58.076Z,14.21
2022-10-01T23:11:32.196Z,14.25
2022-10-01T23:14:23.577Z,14.24
2022-10-01T23:17:06.308Z,14.17
2022-10-01T23:19:52.250Z,14.12
2022-10-01T23:22:41.731Z,14.03
2022-10-01T23:25:40.534Z,14.00
2022-10-01T23:28:19.284Z,13.98
2022-10-01T23:31:04.273Z,13.98
2022-10-01T23:34:05.123Z,13.88
2022-10-01T23:36:39.618Z,13.89
2022-10-01T23:39:33.506Z,13.86
2022-10-01T23:42:31.310Z,13.85
2022-10-01T23:45:16.030Z,13.80
2022-10-01T23:47:55.055Z,13.80
2022-10-01T23:50:35.512Z,13.78
2022-10-01T23:53:11.029Z,13.81
2022-10-01T23:56:13.368Z,13.75
2022-10-01T23:58:50.531Z,13.76
